This is the latest recevied weather packets stored in our database for station/object DK4MDA-13. If no packets are shown the sender has not sent any weather packets the latest 1 day(s).
| Time | Temp. | Humidity | Pressure | Rain* | Wind** | Luminosity | Snow |
|---|---|---|---|---|---|---|---|
| 1836274620 | 13.89° C | 85% | 1017.6 hPa | 0 mm | 0.89 m/s, 148° | - | - |
| 1836274469 | 13.89° C | 87% | 1017.5 hPa | 0 mm | 1.34 m/s, 156° | - | - |
| 1836274319 | 13.89° C | 85% | 1017.6 hPa | 0 mm | 0 m/s | - | - |
| 1836274169 | 13.89° C | 86% | 1017.4 hPa | 0 mm | 1.34 m/s, 144° | - | - |
| 1836274020 | 13.89° C | 85% | 1017.7 hPa | 0 mm | 0 m/s | - | - |
| 1778008328 | 13.33° C | 88% | 1007.7 hPa | 0 mm | 3.13 m/s, 39° | - | - |
| 1778008028 | 13.33° C | 88% | 1007.7 hPa | 0 mm | 3.58 m/s, 21° | - | - |
| 1778007728 | 13.33° C | 88% | 1007.7 hPa | 0 mm | 4.02 m/s, 26° | - | - |
| 1778007428 | 13.33° C | 87% | 1007.7 hPa | 0 mm | 3.58 m/s, 26° | - | - |
| 1778007128 | 13.89° C | 87% | 1007.7 hPa | 0 mm | 2.68 m/s, 11° | - | - |
| 1778006828 | 13.89° C | 87% | 1007.7 hPa | 0 mm | 2.68 m/s, 31° | - | - |
| 1778006528 | 13.89° C | 87% | 1007.7 hPa | 0 mm | 3.13 m/s, 35° | - | - |
| 1778006228 | 13.89° C | 87% | 1007.8 hPa | 0 mm | 3.13 m/s, 15° | - | - |
| 1778005928 | 13.89° C | 87% | 1007.8 hPa | 0 mm | 2.68 m/s, 26° | - | - |
| 1778005628 | 13.89° C | 87% | 1007.7 hPa | 0 mm | 2.68 m/s, 26° | - | - |
| 1778005328 | 13.89° C | 86% | 1007.6 hPa | 0 mm | 2.68 m/s, 50° | - | - |
| 1778005028 | 14.44° C | 86% | 1007.6 hPa | 0 mm | 2.68 m/s, 26° | - | - |
| 1778004728 | 14.44° C | 87% | 1007.6 hPa | 0 mm | 2.68 m/s, 31° | - | - |
| 1778004428 | 14.44° C | 86% | 1007.6 hPa | 0 mm | 2.68 m/s, 357° | - | - |
| 1778004128 | 14.44° C | 86% | 1007.6 hPa | 0 mm | 2.24 m/s, 354° | - | - |
| 1778003828 | 14.44° C | 86% | 1007.5 hPa | 0 mm | 2.68 m/s, 21° | - | - |
| 1778003528 | 14.44° C | 86% | 1007.5 hPa | 0 mm | 3.13 m/s, 0° | - | - |
| 1778003228 | 14.44° C | 86% | 1007.5 hPa | 0 mm | 3.58 m/s, 50° | - | - |
| 1778002629 | 14.44° C | 86% | 1007.6 hPa | 0 mm | 3.13 m/s, 347° | - | - |
| 1778002329 | 15° C | 85% | 1007.6 hPa | 0 mm | 3.13 m/s, 355° | - | - |
* Rain latest hour (hover to see other rain measurements)
** Current wind speed in m/s (hover to see current wind gust speed)